Time;durP1;ratioP1;P1;durP2;ratioP2;P2;SDS_P1;SDS_P2;PMS_P1;PMS_P2;Temp;Humidity;BMP_temperature;BMP_pressure;BME280_temperature;BME280_humidity;BME280_pressure;Samples;Min_cycle;Max_cycle;Signal;HPM_P1;HPM_P2
2021/05/14 00:01:25;;;;;;;12.73;11.48;;;12.00;99.90;;;;;;5073004;28;20125;-74
2021/05/14 00:03:52;;;;;;;15.68;12.98;;;12.00;99.90;;;;;;5072868;28;20043;-73
2021/05/14 00:06:17;;;;;;;18.88;13.13;;;12.00;99.90;;;;;;5073539;28;20044;-73
2021/05/14 00:08:43;;;;;;;16.27;14.15;;;12.00;99.90;;;;;;5073559;28;20074;-74
2021/05/14 00:11:08;;;;;;;18.70;13.60;;;11.90;99.90;;;;;;5074191;28;20423;-73
2021/05/14 00:13:34;;;;;;;17.40;15.00;;;11.90;99.90;;;;;;5073707;28;20516;-73
2021/05/14 00:16:00;;;;;;;17.65;14.07;;;11.80;99.90;;;;;;5073064;28;20111;-73
2021/05/14 00:18:25;;;;;;;20.25;15.10;;;11.90;99.90;;;;;;5072349;28;20074;-74
2021/05/14 00:20:52;;;;;;;20.75;15.88;;;11.80;99.90;;;;;;5073052;28;20076;-73
2021/05/14 00:23:17;;;;;;;20.83;16.50;;;11.80;99.90;;;;;;5073189;28;20024;-73
2021/05/14 00:25:43;;;;;;;21.80;16.33;;;11.80;99.90;;;;;;5074752;28;20032;-73
2021/05/14 00:28:09;;;;;;;20.98;15.85;;;11.80;99.90;;;;;;5067223;28;20026;-73
2021/05/14 00:30:34;;;;;;;20.83;17.55;;;11.70;99.90;;;;;;5072594;28;20091;-73
2021/05/14 00:33:00;;;;;;;25.80;18.42;;;11.80;99.90;;;;;;5073465;28;20067;-73
2021/05/14 00:35:26;;;;;;;20.20;16.73;;;11.70;99.90;;;;;;5073844;28;20028;-73
2021/05/14 00:37:51;;;;;;;20.15;16.42;;;11.70;99.90;;;;;;5072759;28;20021;-73
2021/05/14 00:40:17;;;;;;;21.65;17.17;;;11.70;99.90;;;;;;5057717;28;20032;-73
2021/05/14 00:42:43;;;;;;;22.98;17.13;;;11.60;99.90;;;;;;5072538;28;20020;-72
2021/05/14 00:45:09;;;;;;;21.40;16.20;;;11.60;99.90;;;;;;5052984;28;20101;-72
2021/05/14 00:47:35;;;;;;;20.90;17.33;;;11.60;99.90;;;;;;5072596;28;20070;-72
2021/05/14 00:50:01;;;;;;;21.90;16.02;;;11.60;99.90;;;;;;5072593;28;20163;-72
2021/05/14 00:52:27;;;;;;;25.10;17.73;;;11.60;99.90;;;;;;5071942;28;20103;-72
2021/05/14 00:54:53;;;;;;;19.15;16.20;;;11.60;99.90;;;;;;5072767;28;20036;-73
2021/05/14 00:57:19;;;;;;;22.88;15.50;;;11.60;99.90;;;;;;5072335;28;20021;-72
2021/05/14 00:59:47;;;;;;;20.15;14.70;;;11.50;99.90;;;;;;5071561;28;20170;-73
2021/05/14 01:02:14;;;;;;;25.35;16.45;;;11.40;99.90;;;;;;5071935;28;20023;-72
2021/05/14 01:04:40;;;;;;;20.75;16.05;;;11.40;99.90;;;;;;5072368;28;20033;-73
2021/05/14 01:07:06;;;;;;;21.08;16.15;;;11.40;99.90;;;;;;5073795;28;20032;-73
2021/05/14 01:09:38;;;;;;;19.05;16.65;;;11.30;99.90;;;;;;5084197;28;20032;-73
2021/05/14 01:12:03;;;;;;;20.75;16.55;;;11.30;99.90;;;;;;5072227;28;20025;-72
2021/05/14 01:14:29;;;;;;;19.92;17.08;;;11.20;99.90;;;;;;5071584;28;20077;-72
2021/05/14 01:16:55;;;;;;;23.10;17.50;;;11.10;99.90;;;;;;5072850;28;20024;-72
2021/05/14 01:19:21;;;;;;;24.20;17.80;;;11.10;99.90;;;;;;5071623;28;20498;-72
2021/05/14 01:21:46;;;;;;;19.65;15.40;;;11.10;99.90;;;;;;5071252;28;20048;-72
2021/05/14 01:24:13;;;;;;;22.80;17.67;;;11.00;99.90;;;;;;5071870;28;20391;-72
2021/05/14 01:26:39;;;;;;;23.80;17.95;;;11.00;99.90;;;;;;5072232;28;20028;-73
2021/05/14 01:29:07;;;;;;;22.75;16.52;;;11.10;99.90;;;;;;5071187;28;20206;-73
2021/05/14 01:31:32;;;;;;;22.75;16.15;;;11.10;99.90;;;;;;5071810;28;20617;-73
2021/05/14 01:33:58;;;;;;;22.02;17.77;;;11.10;99.90;;;;;;5072089;28;20056;-73
2021/05/14 01:36:23;;;;;;;21.13;16.13;;;11.10;99.90;;;;;;5070798;28;20403;-73
2021/05/14 01:38:49;;;;;;;22.02;17.23;;;11.10;99.90;;;;;;5072030;28;20111;-73
2021/05/14 01:41:15;;;;;;;22.23;17.38;;;11.10;99.90;;;;;;5070912;28;20447;-74
2021/05/14 01:43:40;;;;;;;25.48;17.58;;;11.10;99.90;;;;;;5071827;28;20024;-73
2021/05/14 01:46:06;;;;;;;23.50;17.80;;;11.10;99.90;;;;;;5071822;28;20078;-73
2021/05/14 01:48:32;;;;;;;22.27;17.15;;;11.10;99.90;;;;;;5070997;28;20095;-74
2021/05/14 01:51:11;;;;;;;22.75;16.92;;;11.10;99.90;;;;;;5072000;28;20055;-73
2021/05/14 01:53:37;;;;;;;21.92;17.10;;;11.10;99.90;;;;;;5071667;28;20024;-74
2021/05/14 01:56:05;;;;;;;21.92;17.63;;;11.10;99.90;;;;;;5071753;28;20028;-74
2021/05/14 01:58:31;;;;;;;25.02;17.83;;;11.10;99.90;;;;;;5075669;28;20078;-73
2021/05/14 02:00:57;;;;;;;21.38;17.08;;;11.10;99.90;;;;;;5075618;28;20037;-74
2021/05/14 02:03:23;;;;;;;23.08;17.63;;;11.00;99.90;;;;;;5074795;28;20025;-72
2021/05/14 02:05:48;;;;;;;21.45;16.90;;;11.00;99.90;;;;;;5075870;28;20056;-72
2021/05/14 02:08:14;;;;;;;21.05;16.83;;;11.00;99.90;;;;;;5075293;28;20063;-72
2021/05/14 02:10:40;;;;;;;19.45;16.77;;;11.00;99.90;;;;;;5075105;28;20023;-73
2021/05/14 02:13:05;;;;;;;21.50;17.05;;;11.00;99.90;;;;;;5075770;28;20083;-73
2021/05/14 02:15:32;;;;;;;25.50;16.02;;;11.00;99.90;;;;;;5075219;28;20028;-73
2021/05/14 02:17:58;;;;;;;23.25;16.15;;;10.90;99.90;;;;;;5074794;28;20103;-73
2021/05/14 02:20:23;;;;;;;25.92;17.98;;;10.90;99.90;;;;;;5074705;28;20151;-73
2021/05/14 02:22:49;;;;;;;26.67;17.38;;;10.90;99.90;;;;;;5075358;28;20079;-72
2021/05/14 02:25:15;;;;;;;23.67;15.95;;;10.80;99.90;;;;;;5074153;28;20124;-73
2021/05/14 02:27:40;;;;;;;24.05;16.67;;;10.80;99.90;;;;;;5075311;28;20074;-73
2021/05/14 02:30:07;;;;;;;20.55;16.98;;;10.80;99.90;;;;;;5075170;28;20024;-73
2021/05/14 02:32:33;;;;;;;22.85;17.38;;;10.80;99.90;;;;;;5074105;28;20371;-73
2021/05/14 02:34:59;;;;;;;24.83;16.55;;;10.80;99.90;;;;;;5075082;28;20028;-74
2021/05/14 02:37:25;;;;;;;24.92;16.83;;;10.70;99.90;;;;;;5074521;28;20070;-74
2021/05/14 02:39:50;;;;;;;22.65;16.42;;;10.80;99.90;;;;;;5073827;28;20476;-72
2021/05/14 02:42:16;;;;;;;18.70;16.35;;;10.70;99.90;;;;;;5074641;28;20032;-73
2021/05/14 02:44:42;;;;;;;22.70;17.08;;;10.80;99.90;;;;;;5074022;28;20167;-73
2021/05/14 02:47:08;;;;;;;25.00;16.73;;;10.80;99.90;;;;;;5074682;28;20025;-73
2021/05/14 02:49:35;;;;;;;22.60;17.40;;;10.80;99.90;;;;;;5074484;28;20029;-73
2021/05/14 02:52:02;;;;;;;20.63;17.02;;;10.80;99.90;;;;;;5074276;28;20028;-73
2021/05/14 02:54:27;;;;;;;22.75;16.95;;;10.80;99.90;;;;;;5074397;28;20024;-73
2021/05/14 02:56:53;;;;;;;23.10;16.50;;;10.80;99.90;;;;;;5075120;28;20078;-73
2021/05/14 02:59:20;;;;;;;29.38;19.08;;;10.80;99.90;;;;;;5075139;28;20043;-73
2021/05/14 03:01:46;;;;;;;22.13;17.48;;;10.80;99.90;;;;;;5074930;28;20025;-73
2021/05/14 03:04:12;;;;;;;25.17;18.00;;;10.80;99.90;;;;;;5074451;28;20495;-73
2021/05/14 03:06:37;;;;;;;24.40;18.02;;;10.80;99.90;;;;;;5073015;28;20024;-73
2021/05/14 03:09:03;;;;;;;25.40;18.58;;;10.70;99.90;;;;;;5074405;28;20023;-72
2021/05/14 03:11:29;;;;;;;23.98;17.83;;;10.70;99.90;;;;;;5073866;28;20520;-73
2021/05/14 03:13:58;;;;;;;21.00;17.67;;;10.70;99.90;;;;;;5073498;28;20024;-73
2021/05/14 03:16:23;;;;;;;29.02;19.52;;;10.70;99.90;;;;;;5073942;28;20020;-73
2021/05/14 03:18:49;;;;;;;25.00;18.27;;;10.70;99.90;;;;;;5074099;28;20039;-73
2021/05/14 03:21:15;;;;;;;27.63;18.20;;;10.70;99.90;;;;;;5073037;28;20471;-73
2021/05/14 03:23:40;;;;;;;29.05;18.85;;;11.20;99.90;;;;;;5073823;28;20031;-73
2021/05/14 03:26:06;;;;;;;27.95;18.88;;;10.70;99.90;;;;;;5074164;28;20029;-74
2021/05/14 03:28:32;;;;;;;22.50;17.05;;;10.70;99.90;;;;;;5073135;28;20373;-75
2021/05/14 03:30:58;;;;;;;29.15;17.88;;;10.70;99.90;;;;;;5073733;28;20158;-73
2021/05/14 03:33:24;;;;;;;25.77;18.90;;;10.60;99.90;;;;;;5073403;28;20539;-74
2021/05/14 03:35:50;;;;;;;31.17;18.63;;;10.60;99.90;;;;;;5072961;28;20017;-73
2021/05/14 03:38:17;;;;;;;22.92;17.63;;;10.60;99.90;;;;;;5073276;28;20173;-73
2021/05/14 03:40:46;;;;;;;26.48;18.02;;;10.70;99.90;;;;;;5073866;28;20131;-73
2021/05/14 03:43:11;;;;;;;23.92;16.92;;;10.60;99.90;;;;;;5073280;28;20017;-73
2021/05/14 03:45:37;;;;;;;26.52;17.58;;;10.70;99.90;;;;;;5073432;28;20031;-73
2021/05/14 03:48:17;;;;;;;29.65;17.17;;;10.70;99.90;;;;;;5072842;28;20017;-73
2021/05/14 03:50:43;;;;;;;24.20;18.38;;;10.70;99.90;;;;;;5073439;28;20228;-72
2021/05/14 03:53:09;;;;;;;28.35;18.55;;;10.70;99.90;;;;;;5073455;28;20507;-72
2021/05/14 03:55:38;;;;;;;24.58;17.10;;;10.60;99.90;;;;;;5072645;28;20025;-73
2021/05/14 03:58:03;;;;;;;27.70;19.45;;;10.70;99.90;;;;;;5073375;28;20021;-74
2021/05/14 04:00:29;;;;;;;24.05;18.05;;;10.70;99.90;;;;;;5072955;28;20473;-74
2021/05/14 04:02:56;;;;;;;29.55;18.35;;;10.70;99.90;;;;;;5072862;28;20027;-74
2021/05/14 04:05:22;;;;;;;26.85;18.58;;;10.70;99.90;;;;;;5072729;28;20050;-73
2021/05/14 04:07:48;;;;;;;24.40;18.38;;;10.70;99.90;;;;;;5073236;28;20024;-72
2021/05/14 04:10:24;;;;;;;23.65;17.77;;;10.70;99.90;;;;;;5072152;28;20024;-72
2021/05/14 04:15:34;;;;;;;21.00;16.25;;;10.70;99.90;;;;;;5072875;28;20537;-74
2021/05/14 04:17:59;;;;;;;27.52;18.25;;;10.80;99.90;;;;;;5072175;28;20016;-74
2021/05/14 04:20:25;;;;;;;23.27;17.85;;;10.70;99.90;;;;;;5072011;28;20037;-74
2021/05/14 04:22:51;;;;;;;24.50;16.70;;;11.50;99.90;;;;;;5073056;28;20024;-73
2021/05/14 04:25:17;;;;;;;24.63;17.42;;;10.80;99.90;;;;;;5072544;28;20123;-74
2021/05/14 04:27:43;;;;;;;22.40;17.50;;;10.80;99.90;;;;;;5086647;28;20116;-74
2021/05/14 04:30:09;;;;;;;22.42;17.80;;;10.80;99.90;;;;;;5072259;28;20512;-74
2021/05/14 04:32:35;;;;;;;20.75;16.75;;;10.80;99.90;;;;;;5072639;28;20460;-72
2021/05/14 04:35:00;;;;;;;19.58;17.40;;;10.80;99.90;;;;;;5073028;28;20020;-73
2021/05/14 04:37:26;;;;;;;23.73;18.25;;;10.80;99.90;;;;;;5071912;28;20107;-74
2021/05/14 04:39:51;;;;;;;20.92;17.52;;;10.80;99.90;;;;;;5073072;28;20032;-74
2021/05/14 04:42:17;;;;;;;21.08;16.77;;;10.80;99.90;;;;;;5072402;28;20025;-72
2021/05/14 04:44:43;;;;;;;21.85;17.65;;;10.80;99.90;;;;;;5072306;28;20111;-72
2021/05/14 04:47:08;;;;;;;20.10;16.38;;;10.80;99.90;;;;;;5072596;28;20044;-72
2021/05/14 04:49:34;;;;;;;24.38;17.45;;;10.90;99.90;;;;;;5072112;28;20070;-72
2021/05/14 04:51:59;;;;;;;23.00;17.55;;;10.90;99.90;;;;;;5072027;28;20016;-72
2021/05/14 04:54:25;;;;;;;24.50;18.00;;;10.90;99.90;;;;;;5072491;28;20436;-73
2021/05/14 04:56:51;;;;;;;21.77;18.10;;;11.00;99.90;;;;;;5072285;28;20018;-73
2021/05/14 04:59:17;;;;;;;22.05;17.90;;;11.00;99.90;;;;;;5071345;28;20036;-73
2021/05/14 05:01:42;;;;;;;22.17;18.15;;;11.00;99.90;;;;;;5072441;28;20024;-72
2021/05/14 05:04:08;;;;;;;22.67;18.10;;;11.00;99.90;;;;;;5072396;28;20029;-72
2021/05/14 05:06:34;;;;;;;26.45;18.83;;;11.00;99.90;;;;;;5071647;28;20096;-74
2021/05/14 05:09:00;;;;;;;23.38;17.27;;;11.00;99.90;;;;;;5072545;28;20376;-73
2021/05/14 05:11:26;;;;;;;26.90;18.58;;;11.10;99.90;;;;;;5072084;28;20385;-73
2021/05/14 05:13:51;;;;;;;27.50;19.20;;;11.10;99.90;;;;;;5071686;28;20461;-73
2021/05/14 05:16:17;;;;;;;22.58;19.33;;;11.10;99.90;;;;;;5071851;28;20028;-73
2021/05/14 05:18:42;;;;;;;24.52;18.98;;;11.10;99.90;;;;;;5088434;28;20126;-73
2021/05/14 05:21:08;;;;;;;25.25;19.42;;;11.10;99.90;;;;;;5091255;28;20098;-73
2021/05/14 05:23:33;;;;;;;20.38;18.15;;;11.10;99.90;;;;;;5091513;28;20119;-73
2021/05/14 05:25:59;;;;;;;20.73;17.05;;;11.10;99.90;;;;;;5092611;28;20120;-73
2021/05/14 05:28:27;;;;;;;22.80;17.33;;;11.20;99.90;;;;;;5058515;28;20029;-73
2021/05/14 05:30:52;;;;;;;22.98;17.92;;;11.30;99.90;;;;;;5058381;28;20456;-74
2021/05/14 05:33:18;;;;;;;26.20;17.83;;;11.30;99.90;;;;;;5052299;28;20067;-74
2021/05/14 05:35:46;;;;;;;20.23;17.67;;;11.50;99.90;;;;;;5057130;28;20699;-74
2021/05/14 05:38:17;;;;;;;25.52;19.45;;;11.60;99.90;;;;;;5057938;28;20028;-74
2021/05/14 05:40:42;;;;;;;26.05;19.75;;;11.70;99.90;;;;;;5055173;28;20078;-73
2021/05/14 05:43:08;;;;;;;19.10;16.08;;;11.80;99.90;;;;;;5055891;28;20070;-73
2021/05/14 05:45:33;;;;;;;24.02;18.60;;;11.80;99.90;;;;;;5051370;28;20021;-73
2021/05/14 05:47:59;;;;;;;23.95;16.60;;;11.80;99.90;;;;;;5056143;28;20025;-73
2021/05/14 05:50:25;;;;;;;22.38;17.73;;;11.90;99.90;;;;;;5062109;28;20017;-73
2021/05/14 05:52:53;;;;;;;17.90;15.90;;;12.00;99.90;;;;;;5054781;28;20052;-73
2021/05/14 05:55:19;;;;;;;25.13;17.80;;;12.10;99.90;;;;;;5052932;28;20040;-73
2021/05/14 05:57:44;;;;;;;20.38;17.88;;;12.10;99.90;;;;;;5053131;28;20025;-72
2021/05/14 06:00:11;;;;;;;21.25;17.00;;;12.10;99.90;;;;;;5053119;28;20032;-74
2021/05/14 06:02:36;;;;;;;22.00;16.58;;;12.20;99.90;;;;;;5050337;28;20040;-74
2021/05/14 06:05:02;;;;;;;21.98;17.33;;;12.20;99.90;;;;;;5060306;28;20082;-74
2021/05/14 06:07:28;;;;;;;17.27;14.68;;;12.30;99.90;;;;;;5055906;28;20092;-74
2021/05/14 06:09:53;;;;;;;23.75;18.25;;;12.50;99.90;;;;;;5056794;28;20119;-74
2021/05/14 06:12:19;;;;;;;19.67;16.67;;;12.50;99.90;;;;;;5055574;28;20039;-75
2021/05/14 06:14:44;;;;;;;27.65;18.20;;;12.50;99.90;;;;;;5071250;28;20115;-74
2021/05/14 06:17:13;;;;;;;20.98;18.13;;;12.50;99.90;;;;;;5075255;28;20456;-74
2021/05/14 06:19:59;;;;;;;24.98;19.30;;;12.50;99.90;;;;;;5073477;28;20029;-74
2021/05/14 06:22:24;;;;;;;22.75;18.92;;;12.90;99.90;;;;;;5073911;28;20041;-74
2021/05/14 06:24:50;;;;;;;25.02;19.42;;;12.50;99.90;;;;;;5071027;28;20473;-75
2021/05/14 06:27:15;;;;;;;25.02;19.20;;;12.50;99.90;;;;;;5071986;28;20467;-72
2021/05/14 06:29:42;;;;;;;23.17;18.85;;;12.40;99.90;;;;;;5064166;28;20103;-74
2021/05/14 06:32:08;;;;;;;30.50;21.25;;;12.50;99.90;;;;;;5064290;28;20092;-73
2021/05/14 06:34:35;;;;;;;27.40;19.83;;;12.50;99.90;;;;;;5074370;28;20452;-73
2021/05/14 06:37:00;;;;;;;28.80;20.98;;;12.50;99.90;;;;;;5072131;28;20028;-73
2021/05/14 06:39:26;;;;;;;30.65;20.08;;;12.60;99.90;;;;;;5070921;28;20036;-73
2021/05/14 06:41:51;;;;;;;23.23;19.40;;;12.60;99.90;;;;;;5073949;28;20029;-75
2021/05/14 06:44:17;;;;;;;24.73;20.83;;;12.60;99.90;;;;;;5073433;28;20025;-74
2021/05/14 06:46:44;;;;;;;27.73;19.90;;;12.60;99.90;;;;;;5076436;28;20040;-74
2021/05/14 06:49:10;;;;;;;23.77;18.92;;;12.50;99.90;;;;;;5073073;28;20112;-75
2021/05/14 06:51:35;;;;;;;22.98;18.85;;;12.50;99.90;;;;;;5072570;28;20102;-74
2021/05/14 06:54:01;;;;;;;23.17;19.02;;;12.70;99.90;;;;;;5074667;28;20021;-74
2021/05/14 06:56:27;;;;;;;28.33;19.90;;;12.80;99.90;;;;;;5074733;28;20030;-75
2021/05/14 06:58:54;;;;;;;22.30;18.90;;;12.90;99.90;;;;;;5078383;28;20469;-75
2021/05/14 07:01:20;;;;;;;25.52;19.52;;;13.00;99.90;;;;;;5080029;28;20086;-75
2021/05/14 07:03:46;;;;;;;28.10;21.15;;;13.00;99.90;;;;;;5077858;28;20480;-74
2021/05/14 07:06:12;;;;;;;26.88;19.70;;;13.10;99.90;;;;;;5074045;28;20027;-74
2021/05/14 07:08:38;;;;;;;27.35;20.25;;;13.00;99.90;;;;;;5075430;28;20016;-75
2021/05/14 07:11:04;;;;;;;30.95;19.92;;;13.00;99.90;;;;;;5064878;28;20472;-75
2021/05/14 07:13:29;;;;;;;36.28;24.70;;;13.00;99.90;;;;;;5086573;28;20059;-75
2021/05/14 07:15:59;;;;;;;29.63;21.52;;;13.00;99.90;;;;;;5091898;28;20024;-76
2021/05/14 07:18:25;;;;;;;27.10;20.70;;;13.00;99.90;;;;;;5077450;28;20025;-77
2021/05/14 07:20:51;;;;;;;29.75;21.65;;;13.00;99.90;;;;;;5091037;28;20039;-77
2021/05/14 07:23:16;;;;;;;31.83;22.20;;;13.10;99.90;;;;;;5091038;28;20028;-77
2021/05/14 07:25:42;;;;;;;30.40;22.27;;;13.20;99.90;;;;;;5090199;28;20020;-77
2021/05/14 07:28:08;;;;;;;27.23;20.80;;;13.30;99.90;;;;;;5058555;28;20029;-78
2021/05/14 07:30:36;;;;;;;26.20;19.77;;;13.50;99.90;;;;;;5066205;28;20482;-79
2021/05/14 07:33:02;;;;;;;24.23;18.70;;;13.60;99.90;;;;;;5074645;28;20035;-76
2021/05/14 07:35:28;;;;;;;23.40;18.60;;;13.60;99.90;;;;;;5075269;28;20048;-77
2021/05/14 07:37:53;;;;;;;24.02;18.98;;;13.60;99.90;;;;;;5077270;28;20086;-75
2021/05/14 07:40:19;;;;;;;25.90;19.63;;;13.80;99.90;;;;;;5072929;28;20047;-74
2021/05/14 07:42:44;;;;;;;26.67;21.15;;;13.90;99.90;;;;;;5074921;28;20048;-74
2021/05/14 07:45:10;;;;;;;27.88;21.70;;;14.00;99.90;;;;;;5076638;28;20034;-77
2021/05/14 07:47:36;;;;;;;33.47;22.80;;;14.00;99.90;;;;;;5074352;28;20058;-74
2021/05/14 07:50:03;;;;;;;30.90;22.38;;;14.00;99.90;;;;;;5074295;28;20476;-75
2021/05/14 07:52:29;;;;;;;28.05;22.35;;;14.10;99.90;;;;;;5073174;28;20108;-77
2021/05/14 07:54:54;;;;;;;30.67;22.23;;;14.20;99.90;;;;;;5072152;28;20119;-74
2021/05/14 07:57:20;;;;;;;39.83;23.08;;;14.30;99.90;;;;;;5073094;28;20036;-74
2021/05/14 07:59:47;;;;;;;30.48;22.88;;;14.40;99.90;;;;;;5073416;28;20035;-76
2021/05/14 08:02:13;;;;;;;31.58;21.55;;;14.40;99.90;;;;;;5072366;28;20027;-73
2021/05/14 08:04:39;;;;;;;29.05;21.25;;;14.50;99.90;;;;;;5073227;28;20037;-75
2021/05/14 08:07:05;;;;;;;28.40;21.20;;;14.60;99.90;;;;;;5073138;28;20083;-75
2021/05/14 08:09:30;;;;;;;25.42;21.23;;;14.80;99.90;;;;;;5072790;28;20430;-74
2021/05/14 08:11:56;;;;;;;33.25;25.00;;;15.00;99.90;;;;;;5072923;28;20392;-74
2021/05/14 08:14:22;;;;;;;27.75;21.98;;;15.00;99.90;;;;;;5078698;28;20413;-74
2021/05/14 08:16:47;;;;;;;25.55;21.92;;;14.90;99.90;;;;;;5092242;28;20020;-76
2021/05/14 08:19:13;;;;;;;26.85;22.75;;;15.00;99.90;;;;;;5075732;28;20032;-76
2021/05/14 08:21:48;;;;;;;24.80;21.15;;;15.00;99.90;;;;;;5074036;28;20052;-76
2021/05/14 08:24:13;;;;;;;25.42;20.08;;;15.10;99.90;;;;;;5071168;28;20403;-77
2021/05/14 08:26:39;;;;;;;25.35;20.80;;;15.10;99.90;;;;;;5072695;28;20028;-77
2021/05/14 08:29:06;;;;;;;28.80;21.73;;;15.00;99.90;;;;;;5077831;28;20437;-77
2021/05/14 08:31:34;;;;;;;24.92;19.88;;;15.10;99.90;;;;;;5087288;28;20028;-77
2021/05/14 08:34:00;;;;;;;30.95;22.35;;;15.00;99.90;;;;;;5084785;28;20075;-76
2021/05/14 08:36:26;;;;;;;26.83;20.00;;;15.00;99.90;;;;;;5083314;28;20020;-76
2021/05/14 08:38:51;;;;;;;24.38;19.52;;;14.90;99.90;;;;;;5073085;28;20029;-76
2021/05/14 08:41:19;;;;;;;24.60;20.80;;;14.90;99.90;;;;;;5072517;28;20028;-77
2021/05/14 08:43:45;;;;;;;29.27;21.85;;;15.00;99.90;;;;;;5072645;28;20054;-76
2021/05/14 08:46:13;;;;;;;25.98;20.60;;;15.10;99.90;;;;;;5071050;28;20032;-77
2021/05/14 08:48:40;;;;;;;25.10;20.13;;;15.00;99.90;;;;;;5080494;28;20488;-76
2021/05/14 08:51:11;;;;;;;25.08;19.38;;;15.10;99.90;;;;;;5089491;28;20035;-76
2021/05/14 08:53:38;;;;;;;26.08;19.80;;;15.20;99.90;;;;;;5091145;28;20106;-77
2021/05/14 08:56:04;;;;;;;25.35;19.90;;;15.30;99.90;;;;;;5071769;28;20074;-77
2021/05/14 08:58:30;;;;;;;25.58;19.35;;;15.30;99.90;;;;;;5088305;28;20138;-75
2021/05/14 09:00:55;;;;;;;21.65;18.38;;;15.40;99.90;;;;;;5090963;28;20474;-75
2021/05/14 09:03:21;;;;;;;23.25;18.40;;;15.60;99.90;;;;;;5088840;28;20236;-75
2021/05/14 09:05:48;;;;;;;22.63;19.45;;;15.80;99.90;;;;;;5090510;28;20028;-78
2021/05/14 09:08:25;;;;;;;22.60;18.52;;;15.80;99.90;;;;;;5088877;28;20019;-78
2021/05/14 09:10:50;;;;;;;21.42;17.80;;;15.80;99.90;;;;;;5078976;28;20103;-75
2021/05/14 09:13:16;;;;;;;22.67;17.88;;;15.70;99.90;;;;;;5075749;28;20475;-75
2021/05/14 09:15:42;;;;;;;25.95;19.10;;;15.70;99.90;;;;;;5065800;28;20044;-75
2021/05/14 09:18:17;;;;;;;21.15;17.63;;;15.60;99.90;;;;;;5076402;28;20082;-74
2021/05/14 09:20:48;;;;;;;21.48;17.83;;;15.60;99.90;;;;;;5071243;28;20082;-75
2021/05/14 09:23:16;;;;;;;20.65;16.17;;;15.60;99.90;;;;;;5072438;28;20022;-74
2021/05/14 09:25:52;;;;;;;22.20;18.42;;;15.70;99.90;;;;;;5071620;28;20040;-76
2021/05/14 09:28:52;;;;;;;22.17;16.05;;;15.80;99.90;;;;;;5071688;28;20017;-76
2021/05/14 09:31:28;;;;;;;21.70;17.38;;;15.70;99.90;;;;;;5072208;28;20021;-75
2021/05/14 09:33:59;;;;;;;22.67;17.70;;;15.40;99.90;;;;;;5071755;28;20379;-74
2021/05/14 09:36:30;;;;;;;21.00;17.15;;;15.20;99.90;;;;;;5071887;28;20020;-75
2021/05/14 09:38:57;;;;;;;23.67;17.27;;;15.00;99.90;;;;;;5072516;28;20028;-77
2021/05/14 09:41:29;;;;;;;19.83;16.92;;;15.00;99.90;;;;;;5071084;28;20108;-75
2021/05/14 09:44:08;;;;;;;24.17;18.17;;;15.00;99.90;;;;;;5072551;28;20028;-76
2021/05/14 09:46:35;;;;;;;21.58;18.00;;;15.10;99.90;;;;;;5071026;28;20031;-75
2021/05/14 09:49:06;;;;;;;23.85;17.85;;;15.20;99.90;;;;;;5072312;28;20017;-75
2021/05/14 09:51:54;;;;;;;19.40;16.83;;;15.30;99.90;;;;;;5071877;28;20551;-76
2021/05/14 09:54:37;;;;;;;21.15;18.27;;;15.50;99.90;;;;;;5070867;28;20027;-76
2021/05/14 10:00:03;;;;;;;22.42;18.00;;;15.80;99.90;;;;;;5072186;28;20430;-76
2021/05/14 10:02:33;;;;;;;19.45;16.63;;;16.00;99.90;;;;;;5070611;28;20026;-76
2021/05/14 10:05:00;;;;;;;21.00;17.92;;;16.20;99.90;;;;;;5071730;28;20127;-76
2021/05/14 10:07:28;;;;;;;23.83;18.60;;;16.20;99.90;;;;;;5069524;28;20120;-77
2021/05/14 10:09:57;;;;;;;21.08;18.15;;;16.10;99.90;;;;;;5069333;28;20567;-75
2021/05/14 10:12:24;;;;;;;22.40;18.83;;;16.20;99.90;;;;;;5071714;28;20024;-76
2021/05/14 10:14:51;;;;;;;20.35;17.63;;;16.00;99.90;;;;;;5062221;28;20065;-73
2021/05/14 10:17:17;;;;;;;23.02;18.08;;;16.20;99.90;;;;;;5080249;28;20099;-77
2021/05/14 10:19:47;;;;;;;20.50;18.30;;;16.40;99.90;;;;;;5057732;28;20053;-77
2021/05/14 10:22:14;;;;;;;22.63;17.25;;;16.50;99.90;;;;;;5075693;28;20059;-78
2021/05/14 10:24:44;;;;;;;19.60;17.35;;;16.60;99.90;;;;;;5091298;28;20039;-78
2021/05/14 10:27:22;;;;;;;21.90;16.80;;;16.80;99.90;;;;;;5058326;28;20068;-78
2021/05/14 10:29:52;;;;;;;21.15;17.52;;;16.90;99.90;;;;;;5076619;28;20115;-78
2021/05/14 10:32:43;;;;;;;19.23;17.20;;;16.70;99.90;;;;;;5085439;28;20038;-77
2021/05/14 10:35:24;;;;;;;21.60;17.48;;;16.50;99.90;;;;;;5087188;28;20016;-77
2021/05/14 10:37:50;;;;;;;;;;;16.40;99.90;;;;;;5080486;28;20028;-77
2021/05/14 10:40:40;;;;;;;22.17;17.45;;;16.40;99.90;;;;;;5075106;28;20000;-76
2021/05/14 10:43:06;;;;;;;21.42;17.17;;;16.30;99.90;;;;;;5066596;28;20135;-77
2021/05/14 10:45:40;;;;;;;18.73;16.70;;;16.30;99.90;;;;;;5075011;28;20140;-76
2021/05/14 10:48:17;;;;;;;19.67;16.60;;;16.30;99.90;;;;;;5075205;28;20032;-77
2021/05/14 10:50:47;;;;;;;21.73;16.80;;;16.40;99.90;;;;;;5074211;28;20112;-76
2021/05/14 10:53:34;;;;;;;18.10;15.73;;;16.60;99.90;;;;;;5075787;28;20161;-74
2021/05/14 10:56:09;;;;;;;21.02;17.15;;;16.60;99.90;;;;;;5066914;28;20048;-76
2021/05/14 10:58:49;;;;;;;18.80;16.77;;;16.90;99.90;;;;;;5060847;28;20376;-77
2021/05/14 11:01:31;;;;;;;18.33;16.02;;;16.50;99.90;;;;;;5056092;28;20045;-75
2021/05/14 11:03:59;;;;;;;16.08;14.38;;;16.60;99.90;;;;;;5074918;28;20024;-74
2021/05/14 11:06:25;;;;;;;23.35;17.30;;;16.50;99.90;;;;;;5078086;28;20582;-76
2021/05/14 11:09:05;;;;;;;18.33;16.38;;;16.40;99.90;;;;;;5082027;28;20012;-75
2021/05/14 11:11:31;;;;;;;;;;;16.30;99.90;;;;;;5077902;28;20028;-75
2021/05/14 11:14:16;;;;;;;19.77;14.80;;;16.30;99.90;;;;;;5063774;28;20270;-74
2021/05/14 11:16:52;;;;;;;17.45;15.50;;;16.50;99.90;;;;;;5078341;28;20087;-76
2021/05/14 11:19:23;;;;;;;19.23;15.77;;;16.70;99.90;;;;;;5077225;28;20034;-75
2021/05/14 11:22:08;;;;;;;18.67;15.73;;;17.20;99.90;;;;;;5077893;28;20051;-74
2021/05/14 11:24:43;;;;;;;17.52;15.73;;;16.50;99.90;;;;;;5078539;28;20021;-76
2021/05/14 11:27:11;;;;;;;16.70;15.10;;;16.60;99.90;;;;;;5079259;28;20025;-77
2021/05/14 11:29:38;;;;;;;16.30;14.63;;;16.70;99.90;;;;;;5078721;28;20033;-76
2021/05/14 11:32:21;;;;;;;17.75;15.38;;;16.80;99.90;;;;;;5077372;28;20036;-74
2021/05/14 11:35:03;;;;;;;21.23;15.07;;;16.60;99.90;;;;;;5078511;28;20118;-75
2021/05/14 11:37:56;;;;;;;19.80;15.35;;;16.50;99.90;;;;;;5077658;28;20036;-76
2021/05/14 11:40:36;;;;;;;17.58;15.48;;;16.40;99.90;;;;;;5073286;28;20036;-76
2021/05/14 11:43:01;;;;;;;19.50;14.75;;;16.40;99.90;;;;;;5074214;28;20491;-77
2021/05/14 11:45:31;;;;;;;16.77;15.02;;;16.50;99.90;;;;;;5073976;28;20123;-76
2021/05/14 11:48:07;;;;;;;16.33;14.65;;;16.70;99.90;;;;;;5073330;28;20358;-75
2021/05/14 11:50:41;;;;;;;15.95;14.05;;;17.00;99.90;;;;;;5073587;28;20508;-75
2021/05/14 11:53:09;;;;;;;19.55;15.52;;;17.20;99.90;;;;;;5073402;28;20032;-75
2021/05/14 11:55:37;;;;;;;19.30;15.38;;;17.10;99.90;;;;;;5073409;28;20035;-76
2021/05/14 11:58:03;;;;;;;16.13;14.48;;;17.40;99.90;;;;;;5073492;28;20131;-74
2021/05/14 12:00:37;;;;;;;19.23;15.65;;;17.20;99.90;;;;;;5072482;28;20109;-75
2021/05/14 12:03:10;;;;;;;16.67;14.23;;;17.20;99.90;;;;;;5073311;28;20020;-76
2021/05/14 12:05:38;;;;;;;15.43;13.90;;;17.40;99.90;;;;;;5073058;28;20017;-76
2021/05/14 12:08:21;;;;;;;16.20;13.85;;;17.20;99.90;;;;;;5072766;28;20395;-75
2021/05/14 12:10:55;;;;;;;16.15;14.52;;;17.40;99.90;;;;;;5060935;28;20070;-74
2021/05/14 12:13:23;;;;;;;15.82;14.13;;;17.40;99.90;;;;;;5065619;28;20028;-74
2021/05/14 12:16:05;;;;;;;17.65;14.55;;;17.50;99.90;;;;;;5068904;28;20133;-75
2021/05/14 12:18:34;;;;;;;17.77;15.77;;;17.40;99.90;;;;;;5058268;28;20032;-76
2021/05/14 12:21:00;;;;;;;14.90;13.38;;;17.60;99.90;;;;;;5068752;28;20474;-75
2021/05/14 12:23:28;;;;;;;18.73;15.73;;;17.80;99.90;;;;;;5066808;28;20388;-77
2021/05/14 12:25:58;;;;;;;16.70;14.38;;;17.90;99.90;;;;;;5072397;28;20485;-75
2021/05/14 12:28:38;;;;;;;15.90;14.20;;;18.20;99.90;;;;;;5068961;28;20119;-77
2021/05/14 12:31:12;;;;;;;15.27;13.35;;;18.00;99.90;;;;;;5068511;28;20086;-76
2021/05/14 12:33:55;;;;;;;15.27;13.77;;;18.00;99.90;;;;;;5070383;28;20099;-76
2021/05/14 12:36:34;;;;;;;17.67;14.77;;;18.10;99.90;;;;;;5067701;28;20056;-76
2021/05/14 12:39:18;;;;;;;15.90;14.20;;;18.00;99.90;;;;;;5052041;28;20115;-76